createdAt,value
2018-04-01T00:00:32.349Z,1.90
2018-04-01T00:02:59.313Z,1.94
2018-04-01T00:05:26.310Z,1.99
2018-04-01T00:07:53.252Z,1.95
2018-04-01T00:10:20.184Z,1.92
2018-04-01T00:12:47.129Z,1.90
2018-04-01T00:15:14.049Z,1.92
2018-04-01T00:17:41.005Z,1.94
2018-04-01T00:20:07.914Z,1.78
2018-04-01T00:22:34.889Z,1.73
2018-04-01T00:25:01.804Z,1.78
2018-04-01T00:27:28.801Z,2.03
2018-04-01T00:29:55.723Z,1.87
2018-04-01T00:32:23.609Z,2.01
2018-04-01T00:34:51.521Z,1.89
2018-04-01T00:37:18.525Z,1.73
2018-04-01T00:39:45.441Z,1.80
2018-04-01T00:42:12.355Z,1.76
2018-04-01T00:44:39.353Z,1.89
2018-04-01T00:47:06.305Z,1.82
2018-04-01T00:49:33.273Z,1.80
2018-04-01T00:52:00.226Z,2.00
2018-04-01T00:54:27.133Z,1.83
2018-04-01T00:56:54.041Z,1.72
2018-04-01T00:59:20.990Z,1.66
2018-04-01T01:01:47.900Z,1.94
2018-04-01T01:04:14.868Z,1.85
2018-04-01T01:06:41.790Z,1.79
2018-04-01T01:09:08.733Z,1.80
2018-04-01T01:11:35.651Z,1.73
2018-04-01T01:14:02.597Z,1.74
2018-04-01T01:16:29.505Z,1.72
2018-04-01T01:18:56.414Z,1.76
2018-04-01T01:21:23.358Z,1.82
2018-04-01T01:23:50.273Z,1.83
2018-04-01T01:26:17.216Z,1.80
2018-04-01T01:28:44.162Z,1.88
2018-04-01T01:31:11.214Z,1.88
2018-04-01T01:33:38.124Z,1.83
2018-04-01T01:36:05.060Z,1.84
2018-04-01T01:38:31.976Z,1.84
2018-04-01T01:40:58.921Z,1.88
2018-04-01T01:43:25.837Z,1.92
2018-04-01T01:45:52.779Z,1.65
2018-04-01T01:48:19.691Z,1.77
2018-04-01T01:50:46.633Z,1.85
2018-04-01T01:53:13.540Z,1.87
2018-04-01T01:55:40.663Z,1.88
2018-04-01T01:58:07.572Z,1.83
2018-04-01T02:00:34.485Z,2.08
2018-04-01T02:03:01.430Z,2.24
2018-04-01T02:05:28.353Z,2.00
2018-04-01T02:07:56.273Z,2.16
2018-04-01T02:10:23.185Z,2.02
2018-04-01T02:12:51.089Z,2.13
2018-04-01T02:15:18.002Z,1.89
2018-04-01T02:17:44.949Z,2.05
2018-04-01T02:20:11.945Z,2.13
2018-04-01T02:22:38.994Z,2.02
2018-04-01T02:25:05.910Z,1.81
2018-04-01T02:27:32.868Z,1.63
2018-04-01T02:29:59.781Z,1.75
2018-04-01T02:32:26.725Z,1.79
2018-04-01T02:34:53.648Z,1.74
2018-04-01T02:37:20.556Z,1.88
2018-04-01T02:39:47.501Z,1.82
2018-04-01T02:42:14.413Z,1.86
2018-04-01T02:44:41.362Z,1.83
2018-04-01T02:47:08.277Z,1.50
2018-04-01T02:49:35.221Z,1.86
2018-04-01T02:52:02.130Z,1.76
2018-04-01T02:54:29.073Z,1.86
2018-04-01T02:56:55.979Z,1.64
2018-04-01T02:59:22.933Z,1.61
2018-04-01T03:01:49.896Z,1.71
2018-04-01T03:04:16.841Z,1.73
2018-04-01T03:06:43.758Z,1.80
2018-04-01T03:09:10.697Z,1.71
2018-04-01T03:11:37.614Z,1.57
2018-04-01T03:14:04.533Z,1.57
2018-04-01T03:16:31.477Z,1.49
2018-04-01T03:18:58.408Z,1.65
2018-04-01T03:21:25.356Z,1.66
2018-04-01T03:23:52.272Z,1.57
2018-04-01T03:26:19.213Z,1.72
2018-04-01T03:28:46.183Z,1.65
2018-04-01T03:31:13.128Z,1.53
2018-04-01T03:33:40.044Z,1.59
2018-04-01T03:36:06.985Z,1.51
2018-04-01T03:38:33.906Z,1.43
2018-04-01T03:41:01.773Z,1.51
2018-04-01T03:43:28.692Z,1.47
2018-04-01T03:45:55.636Z,1.64
2018-04-01T03:48:22.553Z,1.83
2018-04-01T03:50:50.411Z,1.68
2018-04-01T03:53:17.329Z,1.84
2018-04-01T03:55:44.296Z,1.61
2018-04-01T03:58:11.205Z,1.60
2018-04-01T04:00:38.129Z,1.59
2018-04-01T04:03:05.076Z,1.73
2018-04-01T04:05:32.961Z,1.51
2018-04-01T04:07:59.912Z,1.56
2018-04-01T04:10:26.816Z,1.69
2018-04-01T04:12:54.664Z,1.75
2018-04-01T04:15:21.568Z,1.66
2018-04-01T04:17:48.510Z,1.60
2018-04-01T04:20:15.425Z,1.54
2018-04-01T04:22:42.369Z,1.51
2018-04-01T04:25:09.291Z,1.62
2018-04-01T04:27:36.241Z,1.80
2018-04-01T04:30:04.155Z,1.62
2018-04-01T04:32:31.100Z,1.60
2018-04-01T04:34:58.004Z,1.58
2018-04-01T04:37:24.913Z,1.50
2018-04-01T04:39:51.862Z,1.64
2018-04-01T04:42:18.764Z,1.62
2018-04-01T04:44:45.701Z,1.62
2018-04-01T04:47:12.613Z,1.81
2018-04-01T04:49:39.552Z,1.62
2018-04-01T04:52:06.470Z,1.61
2018-04-01T04:54:33.432Z,1.57
2018-04-01T04:57:00.346Z,1.58
2018-04-01T04:59:27.304Z,1.74
2018-04-01T05:01:54.212Z,1.92
2018-04-01T05:04:22.018Z,1.98
2018-04-01T05:06:48.957Z,1.68
2018-04-01T05:09:15.859Z,1.67
2018-04-01T05:11:42.799Z,1.74
2018-04-01T05:14:09.715Z,1.55
2018-04-01T05:16:36.653Z,1.69
2018-04-01T05:19:03.552Z,1.62
2018-04-01T05:21:30.486Z,1.75
2018-04-01T05:23:57.392Z,1.74
2018-04-01T05:26:24.345Z,1.56
2018-04-01T05:28:51.267Z,1.89
2018-04-01T05:31:18.226Z,1.72
2018-04-01T05:33:45.137Z,1.55
2018-04-01T05:36:12.087Z,1.71
2018-04-01T05:38:38.993Z,1.73
2018-04-01T05:41:05.967Z,1.69
2018-04-01T05:43:32.919Z,1.58
2018-04-01T05:45:59.849Z,1.56
2018-04-01T05:48:27.751Z,1.50
2018-04-01T05:50:54.661Z,1.52
2018-04-01T05:53:22.510Z,1.58
2018-04-01T05:55:49.422Z,1.77
2018-04-01T05:58:16.363Z,1.89
2018-04-01T06:00:43.281Z,1.90
2018-04-01T06:03:10.225Z,1.86
2018-04-01T06:05:37.138Z,1.78
2018-04-01T06:08:04.098Z,1.73
2018-04-01T06:10:31.949Z,1.82
2018-04-01T06:12:58.897Z,1.64
2018-04-01T06:15:25.821Z,1.53
2018-04-01T06:17:52.804Z,1.78
2018-04-01T06:20:20.657Z,1.74
2018-04-01T06:22:47.566Z,1.72
2018-04-01T06:25:14.538Z,1.81
2018-04-01T06:27:41.458Z,1.89
2018-04-01T06:30:08.411Z,1.74
2018-04-01T06:32:35.326Z,2.18
2018-04-01T06:35:02.271Z,2.02
2018-04-01T06:37:29.189Z,1.99
2018-04-01T06:39:56.185Z,1.86
2018-04-01T06:42:23.979Z,1.94
2018-04-01T06:44:51.882Z,2.07
2018-04-01T06:47:18.785Z,1.80
2018-04-01T06:49:45.720Z,1.81
2018-04-01T06:52:12.620Z,1.71
2018-04-01T06:54:39.569Z,1.95
2018-04-01T06:57:06.477Z,1.92
2018-04-01T06:59:33.433Z,1.90
2018-04-01T07:02:00.343Z,1.92
2018-04-01T07:04:27.245Z,1.95
2018-04-01T07:06:54.185Z,2.01
2018-04-01T07:09:21.089Z,2.03
2018-04-01T07:11:48.040Z,1.90
2018-04-01T07:14:14.949Z,1.93
2018-04-01T07:16:41.893Z,2.01
2018-04-01T07:19:08.807Z,1.91
2018-04-01T07:21:36.758Z,1.87
2018-04-01T07:24:03.666Z,1.88
2018-04-01T07:26:30.604Z,2.19
2018-04-01T07:28:57.514Z,2.02
2018-04-01T07:31:24.449Z,2.23
2018-04-01T07:33:52.273Z,2.21
2018-04-01T07:36:19.245Z,2.33
2018-04-01T07:38:46.125Z,2.43
2018-04-01T07:41:13.065Z,2.74
2018-04-01T07:43:39.977Z,2.92
2018-04-01T07:46:06.921Z,2.99
2018-04-01T07:48:34.768Z,2.76
2018-04-01T07:51:01.744Z,3.04
2018-04-01T07:53:29.672Z,2.88
2018-04-01T07:55:56.589Z,3.33
2018-04-01T07:58:23.529Z,3.60
2018-04-01T08:00:50.440Z,3.14
2018-04-01T08:03:17.393Z,3.11
2018-04-01T08:05:45.331Z,3.30
2018-04-01T08:08:12.278Z,2.87
2018-04-01T08:10:39.187Z,2.88
2018-04-01T08:13:09.474Z,2.83
2018-04-01T08:15:37.308Z,2.78
2018-04-01T08:18:04.250Z,2.75
2018-04-01T08:20:32.081Z,2.60
2018-04-01T08:23:03.883Z,2.79
2018-04-01T08:25:30.796Z,2.61
2018-04-01T08:27:57.729Z,2.66
2018-04-01T08:30:24.649Z,2.49
2018-04-01T08:32:51.681Z,2.92
2018-04-01T08:35:18.585Z,2.68
2018-04-01T08:37:45.489Z,2.77
2018-04-01T08:40:12.524Z,2.82
2018-04-01T08:42:39.415Z,2.69
2018-04-01T08:45:06.357Z,2.62
2018-04-01T08:47:33.280Z,2.75
2018-04-01T08:50:00.218Z,2.65
2018-04-01T08:52:27.130Z,2.75
2018-04-01T08:54:55.001Z,3.28
2018-04-01T08:57:21.926Z,3.32
2018-04-01T08:59:48.867Z,3.24
2018-04-01T09:02:15.774Z,3.02
2018-04-01T09:04:43.613Z,3.03
2018-04-01T09:07:10.529Z,3.46
2018-04-01T09:09:37.477Z,3.64
2018-04-01T09:12:04.416Z,3.49
2018-04-01T09:14:32.335Z,3.77
2018-04-01T09:16:59.245Z,3.59
2018-04-01T09:19:26.165Z,3.53
2018-04-01T09:21:53.106Z,3.63
2018-04-01T09:24:20.934Z,3.81
2018-04-01T09:26:47.983Z,3.63
2018-04-01T09:29:15.882Z,3.64
2018-04-01T09:31:42.823Z,3.47
2018-04-01T09:34:09.741Z,3.39
2018-04-01T09:36:36.693Z,3.48
2018-04-01T09:39:03.627Z,3.86
2018-04-01T09:41:31.561Z,3.78
2018-04-01T09:43:59.383Z,3.43
2018-04-01T09:46:26.331Z,3.99
2018-04-01T09:48:53.255Z,4.25
2018-04-01T09:51:21.245Z,4.12
2018-04-01T09:53:48.137Z,4.54
2018-04-01T09:56:16.137Z,3.96
2018-04-01T09:58:44.044Z,3.65
2018-04-01T10:01:14.459Z,4.06
2018-04-01T10:03:42.893Z,3.85
2018-04-01T10:06:10.358Z,3.68
2018-04-01T10:08:38.836Z,3.42
2018-04-01T10:11:06.293Z,3.46
2018-04-01T10:13:34.792Z,3.83
2018-04-01T10:16:02.254Z,4.14
2018-04-01T10:18:31.274Z,4.13
2018-04-01T10:20:58.760Z,3.58
2018-04-01T10:23:26.308Z,3.82
2018-04-01T10:25:53.826Z,4.06
2018-04-01T10:28:23.326Z,4.35
2018-04-01T10:30:51.742Z,4.08
2018-04-01T10:33:19.196Z,4.19
2018-04-01T10:35:47.633Z,4.14
2018-04-01T10:38:15.128Z,4.97
2018-04-01T10:40:42.626Z,4.82
2018-04-01T10:43:11.084Z,4.14
2018-04-01T10:45:38.569Z,3.91
2018-04-01T10:48:06.021Z,3.83
2018-04-01T10:50:34.417Z,3.71
2018-04-01T10:53:01.879Z,3.33
2018-04-01T10:55:28.890Z,4.34
2018-04-01T10:57:55.821Z,4.55
2018-04-01T11:00:22.758Z,5.09
2018-04-01T11:02:49.671Z,4.77
2018-04-01T11:05:17.548Z,5.27
2018-04-01T11:07:44.472Z,4.92
2018-04-01T11:10:11.394Z,5.08
2018-04-01T11:12:38.340Z,4.96
2018-04-01T11:15:06.199Z,4.45
2018-04-01T11:17:34.185Z,4.52
2018-04-01T11:20:01.101Z,4.77
2018-04-01T11:22:28.976Z,4.55
2018-04-01T11:24:55.938Z,4.51
2018-04-01T11:27:22.915Z,4.91
2018-04-01T11:29:49.844Z,4.90
2018-04-01T11:32:17.773Z,5.18
2018-04-01T11:34:44.693Z,5.13
2018-04-01T11:37:11.680Z,5.35
2018-04-01T11:39:38.595Z,5.41
2018-04-01T11:42:06.475Z,5.13
2018-04-01T11:44:33.394Z,5.08
2018-04-01T11:47:00.298Z,5.22
2018-04-01T11:49:27.250Z,5.66
2018-04-01T11:51:56.061Z,6.19
2018-04-01T11:54:23.004Z,6.23
2018-04-01T11:56:49.964Z,5.35
2018-04-01T11:59:16.893Z,6.17
2018-04-01T12:01:44.761Z,6.00
2018-04-01T12:04:16.413Z,5.88
2018-04-01T12:06:43.337Z,6.28
2018-04-01T12:09:10.293Z,7.01
2018-04-01T12:11:37.205Z,7.09
2018-04-01T12:14:05.151Z,6.78
2018-04-01T12:16:32.066Z,6.77
2018-04-01T12:18:59.003Z,7.02
2018-04-01T12:21:25.955Z,6.83
2018-04-01T12:23:52.881Z,6.13
2018-04-01T12:26:19.848Z,6.11
2018-04-01T12:28:47.673Z,6.52
2018-04-01T12:31:14.625Z,7.42
2018-04-01T12:33:41.544Z,7.46
2018-04-01T12:36:08.486Z,7.67
2018-04-01T12:38:41.693Z,7.12
2018-04-01T12:41:08.641Z,7.35
2018-04-01T12:43:35.576Z,6.97
2018-04-01T12:46:05.602Z,7.48
2018-04-01T12:48:32.663Z,8.18
2018-04-01T12:50:59.617Z,7.86
2018-04-01T12:53:26.553Z,7.75
2018-04-01T12:55:53.480Z,7.67
2018-04-01T12:58:20.474Z,7.58
2018-04-01T13:00:47.403Z,8.29
2018-04-01T13:03:14.729Z,8.42
2018-04-01T13:05:41.916Z,8.52
2018-04-01T13:08:09.810Z,8.17
2018-04-01T13:10:37.756Z,8.06
2018-04-01T13:13:11.883Z,7.62
2018-04-01T13:15:39.313Z,8.03
2018-04-01T13:18:09.193Z,8.06
2018-04-01T13:20:36.146Z,8.39
2018-04-01T13:23:03.195Z,8.25
2018-04-01T13:25:30.133Z,8.35
2018-04-01T13:27:57.158Z,8.63
2018-04-01T13:30:24.103Z,7.83
2018-04-01T13:32:52.023Z,8.01
2018-04-01T13:35:19.070Z,8.44
2018-04-01T13:37:50.778Z,8.26
2018-04-01T13:40:17.793Z,8.41
2018-04-01T13:42:44.714Z,9.00
2018-04-01T13:45:11.678Z,9.52
2018-04-01T13:47:39.590Z,9.62
2018-04-01T13:50:06.567Z,10.56
2018-04-01T13:52:33.529Z,11.08
2018-04-01T13:55:00.553Z,11.98
2018-04-01T13:57:27.470Z,13.47
2018-04-01T13:59:54.473Z,14.79
2018-04-01T14:02:23.453Z,15.20
2018-04-01T14:04:50.417Z,15.28
2018-04-01T14:07:18.393Z,14.00
2018-04-01T14:09:45.345Z,11.72
2018-04-01T14:12:13.193Z,10.94
2018-04-01T14:14:42.205Z,10.96
2018-04-01T14:17:10.046Z,11.22
2018-04-01T14:19:37.959Z,12.26
2018-04-01T14:22:04.963Z,14.37
2018-04-01T14:24:31.966Z,14.85
2018-04-01T14:26:58.925Z,16.77
2018-04-01T14:29:25.857Z,17.19
2018-04-01T14:31:53.829Z,15.60
2018-04-01T14:34:20.753Z,14.33
2018-04-01T14:36:47.702Z,15.54
2018-04-01T14:39:14.624Z,15.25
2018-04-01T14:41:41.624Z,14.27
2018-04-01T14:44:08.569Z,19.90
2018-04-01T14:46:35.551Z,17.94
2018-04-01T14:49:02.472Z,17.35
2018-04-01T14:51:29.394Z,17.26
2018-04-01T14:53:56.353Z,15.74
2018-04-01T14:56:24.260Z,13.06
2018-04-01T14:58:51.215Z,13.90
2018-04-01T15:01:18.142Z,14.07
2018-04-01T15:03:45.154Z,12.89
2018-04-01T15:06:12.100Z,20.07
2018-04-01T15:08:39.046Z,19.69
2018-04-01T15:11:07.976Z,25.03
2018-04-01T15:13:34.924Z,24.80
2018-04-01T15:16:03.057Z,26.03
2018-04-01T15:18:31.032Z,27.06
2018-04-01T15:20:59.965Z,25.89
2018-04-01T15:23:26.897Z,25.32
2018-04-01T15:25:53.845Z,28.13
2018-04-01T15:28:21.610Z,28.48
2018-04-01T15:30:49.477Z,29.44
2018-04-01T15:33:16.391Z,24.24
2018-04-01T15:35:45.333Z,24.59
2018-04-01T15:38:12.259Z,25.96
2018-04-01T15:40:39.261Z,26.26
2018-04-01T15:43:06.182Z,23.38
2018-04-01T15:45:35.253Z,21.65
2018-04-01T15:48:02.214Z,24.46
2018-04-01T15:50:29.331Z,22.83
2018-04-01T15:52:56.240Z,17.18
2018-04-01T15:55:23.180Z,13.21
2018-04-01T15:57:53.759Z,11.96
2018-04-01T16:00:20.701Z,10.59
2018-04-01T16:02:48.837Z,9.64
2018-04-01T16:05:15.785Z,8.91
2018-04-01T16:07:42.702Z,8.35
2018-04-01T16:10:11.549Z,8.24
2018-04-01T16:12:38.509Z,8.46
2018-04-01T16:15:05.481Z,8.08
2018-04-01T16:17:35.595Z,7.79
2018-04-01T16:20:03.497Z,7.73
2018-04-01T16:22:30.479Z,7.74
2018-04-01T16:24:57.442Z,7.74
2018-04-01T16:27:25.375Z,7.75
2018-04-01T16:29:54.264Z,7.61
2018-04-01T16:32:22.427Z,8.02
2018-04-01T16:34:50.357Z,7.67
2018-04-01T16:37:17.316Z,7.21
2018-04-01T16:39:44.253Z,6.86
2018-04-01T16:42:11.226Z,6.78
2018-04-01T16:44:38.153Z,6.64
2018-04-01T16:47:05.109Z,6.69
2018-04-01T16:49:32.045Z,6.56
2018-04-01T16:51:59.005Z,6.29
2018-04-01T16:54:25.944Z,6.35
2018-04-01T16:56:52.928Z,6.13
2018-04-01T16:59:19.989Z,6.03
2018-04-01T17:01:46.933Z,6.19
2018-04-01T17:04:13.849Z,6.23
2018-04-01T17:06:40.800Z,6.42
2018-04-01T17:09:07.754Z,6.49
2018-04-01T17:11:34.672Z,6.09
2018-04-01T17:14:01.640Z,5.98
2018-04-01T17:16:31.910Z,6.13
2018-04-01T17:18:58.888Z,5.96
2018-04-01T17:21:26.726Z,5.80
2018-04-01T17:23:53.667Z,5.87
2018-04-01T17:26:24.065Z,5.84
2018-04-01T17:28:51.018Z,5.69
2018-04-01T17:31:17.936Z,5.69
2018-04-01T17:33:44.885Z,5.39
2018-04-01T17:36:11.799Z,5.19
2018-04-01T17:38:39.774Z,5.25
2018-04-01T17:41:07.686Z,5.18
2018-04-01T17:43:34.639Z,5.41
2018-04-01T17:46:01.556Z,5.72
2018-04-01T17:48:29.478Z,5.76
2018-04-01T17:50:57.318Z,5.37
2018-04-01T17:53:25.274Z,5.41
2018-04-01T17:55:53.149Z,5.30
2018-04-01T17:58:20.067Z,5.42
2018-04-01T18:00:47.987Z,5.33
2018-04-01T18:03:14.937Z,5.26
2018-04-01T18:05:41.890Z,4.92
2018-04-01T18:08:09.702Z,4.91
2018-04-01T18:10:36.662Z,4.80
2018-04-01T18:13:03.586Z,4.75
2018-04-01T18:15:31.557Z,4.64
2018-04-01T18:17:58.487Z,4.48
2018-04-01T18:20:25.437Z,4.36
2018-04-01T18:22:52.351Z,4.19
2018-04-01T18:25:19.917Z,4.19
2018-04-01T18:27:46.902Z,4.38
2018-04-01T18:30:13.873Z,4.08
2018-04-01T18:32:40.794Z,4.13
2018-04-01T18:35:07.932Z,4.62
2018-04-01T18:37:34.912Z,4.67
2018-04-01T18:40:03.837Z,4.35
2018-04-01T18:42:30.778Z,4.33
2018-04-01T18:44:57.689Z,4.73
2018-04-01T18:47:24.634Z,4.45
2018-04-01T18:49:51.550Z,4.11
2018-04-01T18:52:18.568Z,3.98
2018-04-01T18:54:45.523Z,3.88
2018-04-01T18:57:12.454Z,3.70
2018-04-01T18:59:39.407Z,3.69
2018-04-01T19:02:06.350Z,3.72
2018-04-01T19:04:33.273Z,3.95
2018-04-01T19:07:00.230Z,3.98
2018-04-01T19:09:27.140Z,4.11
2018-04-01T19:11:55.097Z,4.59
2018-04-01T19:14:22.018Z,4.37
2018-04-01T19:17:08.267Z,4.11
2018-04-01T19:19:35.729Z,4.23
2018-04-01T19:22:03.246Z,4.18
2018-04-01T19:24:30.724Z,3.91
2018-04-01T19:27:00.103Z,4.01
2018-04-01T19:29:28.509Z,3.68
2018-04-01T19:31:55.997Z,4.20
2018-04-01T19:34:23.489Z,4.06
2018-04-01T19:36:50.955Z,4.05
2018-04-01T19:39:20.482Z,4.19
2018-04-01T19:41:47.953Z,4.28
2018-04-01T19:44:15.457Z,4.27
2018-04-01T19:46:42.917Z,4.12
2018-04-01T19:49:10.410Z,3.95
2018-04-01T19:51:37.888Z,3.90
2018-04-01T19:54:06.101Z,3.75
2018-04-01T19:56:34.472Z,3.80
2018-04-01T19:59:01.987Z,3.90
2018-04-01T20:01:29.510Z,3.87
2018-04-01T20:03:57.557Z,4.16
2018-04-01T20:06:26.195Z,4.02
2018-04-01T20:08:54.746Z,3.91
2018-04-01T20:11:22.242Z,3.74
2018-04-01T20:13:49.697Z,3.59
2018-04-01T20:16:17.214Z,3.60
2018-04-01T20:18:45.320Z,3.55
2018-04-01T20:21:12.812Z,3.62
2018-04-01T20:23:40.264Z,3.40
2018-04-01T20:26:07.737Z,3.32
2018-04-01T20:28:35.207Z,3.06
2018-04-01T20:31:02.693Z,3.08
2018-04-01T20:33:30.145Z,2.90
2018-04-01T20:35:57.653Z,3.16
2018-04-01T20:38:25.113Z,3.39
2018-04-01T20:40:53.365Z,3.38
2018-04-01T20:43:20.828Z,3.10
2018-04-01T20:45:48.313Z,2.82
2018-04-01T20:48:15.838Z,2.78
2018-04-01T20:50:43.333Z,2.67
2018-04-01T20:53:10.789Z,2.61
2018-04-01T20:55:38.275Z,2.55
2018-04-01T20:58:05.771Z,2.50
2018-04-01T21:00:33.240Z,2.41
2018-04-01T21:03:00.732Z,2.42
2018-04-01T21:05:28.206Z,2.35
2018-04-01T21:07:55.698Z,2.33
2018-04-01T21:10:23.155Z,2.39
2018-04-01T21:12:50.670Z,2.27
2018-04-01T21:15:18.206Z,2.28
2018-04-01T21:17:45.689Z,2.17
2018-04-01T21:20:13.139Z,2.11
2018-04-01T21:22:40.616Z,1.96
2018-04-01T21:25:08.081Z,2.08
2018-04-01T21:27:35.590Z,2.03
2018-04-01T21:30:03.045Z,2.07
2018-04-01T21:32:30.541Z,2.01
2018-04-01T21:34:58.013Z,1.95
2018-04-01T21:37:25.496Z,1.99
2018-04-01T21:39:54.753Z,2.08
2018-04-01T21:42:22.205Z,2.15
2018-04-01T21:44:50.698Z,2.04
2018-04-01T21:47:18.168Z,2.01
2018-04-01T21:49:45.658Z,2.03
2018-04-01T21:52:13.114Z,2.07
2018-04-01T21:54:40.611Z,2.11
2018-04-01T21:57:08.093Z,1.75
2018-04-01T21:59:36.702Z,1.82
2018-04-01T22:02:04.162Z,1.83
2018-04-01T22:04:31.652Z,1.86
2018-04-01T22:06:59.113Z,1.76
2018-04-01T22:09:26.605Z,2.01
2018-04-01T22:11:54.058Z,1.96
2018-04-01T22:14:21.544Z,1.80
2018-04-01T22:16:48.997Z,1.63
2018-04-01T22:19:16.482Z,1.68
2018-04-01T22:21:43.928Z,1.61
2018-04-01T22:24:11.453Z,1.63
2018-04-01T22:26:40.950Z,1.57
2018-04-01T22:29:09.344Z,1.42
2018-04-01T22:31:36.833Z,1.46
2018-04-01T22:34:04.291Z,1.43
2018-04-01T22:36:32.746Z,1.46
2018-04-01T22:39:00.201Z,1.40
2018-04-01T22:41:27.686Z,1.33
2018-04-01T22:43:55.139Z,1.25
2018-04-01T22:46:22.621Z,1.15
2018-04-01T22:48:51.037Z,1.22
2018-04-01T22:51:18.530Z,1.15
2018-04-01T22:53:45.993Z,1.10
2018-04-01T22:56:13.472Z,1.15
2018-04-01T22:58:40.936Z,1.06
2018-04-01T23:01:08.417Z,1.05
2018-04-01T23:03:35.874Z,1.14
2018-04-01T23:06:03.396Z,1.08
2018-04-01T23:08:30.854Z,0.97
2018-04-01T23:10:58.336Z,0.97
2018-04-01T23:13:25.796Z,1.10
2018-04-01T23:15:53.305Z,1.03
2018-04-01T23:18:20.766Z,1.01
2018-04-01T23:20:48.262Z,1.03
2018-04-01T23:23:16.622Z,1.03
2018-04-01T23:25:44.134Z,0.97
2018-04-01T23:28:11.580Z,1.03
2018-04-01T23:30:39.077Z,0.94
2018-04-01T23:33:06.521Z,0.88
2018-04-01T23:35:34.020Z,0.81
2018-04-01T23:38:01.486Z,0.78
2018-04-01T23:40:28.941Z,0.89
2018-04-01T23:42:56.429Z,0.90
2018-04-01T23:45:23.897Z,0.95
2018-04-01T23:47:51.403Z,0.87
2018-04-01T23:50:18.875Z,0.82
2018-04-01T23:52:46.362Z,0.82
2018-04-01T23:55:14.793Z,0.88
2018-04-01T23:57:42.269Z,0.86
